createdAt,value
2019-03-05T00:01:52.887Z,9.42
2019-03-05T00:04:23.384Z,9.39
2019-03-05T00:06:55.027Z,9.37
2019-03-05T00:09:25.463Z,9.37
2019-03-05T00:11:56.384Z,9.35
2019-03-05T00:14:27.074Z,9.38
2019-03-05T00:17:04.136Z,9.37
2019-03-05T00:19:34.449Z,9.34
2019-03-05T00:22:05.191Z,9.29
2019-03-05T00:25:01.622Z,9.25
2019-03-05T00:27:59.987Z,9.23
2019-03-05T00:30:54.112Z,9.23
2019-03-05T00:34:04.163Z,9.22
2019-03-05T00:36:46.739Z,9.23
2019-03-05T00:40:07.460Z,9.25
2019-03-05T00:43:52.026Z,9.28
2019-03-05T00:47:05.118Z,9.25
2019-03-05T00:50:44.176Z,9.25
2019-03-05T00:53:35.834Z,9.24
2019-03-05T00:56:44.176Z,9.25
2019-03-05T01:00:13.938Z,9.26
2019-03-05T01:03:05.772Z,9.28
2019-03-05T01:06:25.246Z,9.31
2019-03-05T01:08:57.794Z,9.27
2019-03-05T01:11:28.205Z,9.30
2019-03-05T01:13:58.965Z,9.31
2019-03-05T01:16:34.806Z,9.30
2019-03-05T01:19:05.172Z,9.33
2019-03-05T01:21:35.869Z,9.37
2019-03-05T01:24:07.430Z,9.38
2019-03-05T01:26:40.317Z,9.35
2019-03-05T01:29:10.688Z,9.37
2019-03-05T01:31:58.478Z,9.45
2019-03-05T01:34:50.611Z,9.51
2019-03-05T01:37:20.936Z,9.50
2019-03-05T01:40:08.895Z,9.49
2019-03-05T01:42:39.603Z,9.43
2019-03-05T01:45:12.434Z,9.46
2019-03-05T01:47:42.906Z,9.55
2019-03-05T01:50:15.236Z,9.63
2019-03-05T01:52:45.617Z,9.67
2019-03-05T01:55:16.148Z,9.66
2019-03-05T01:57:46.536Z,9.66
2019-03-05T02:00:19.130Z,9.63
2019-03-05T02:02:49.495Z,9.62
2019-03-05T02:05:20.963Z,9.62
2019-03-05T02:07:52.077Z,9.65
2019-03-05T02:10:23.402Z,9.68
2019-03-05T02:12:53.721Z,9.73
2019-03-05T02:15:24.078Z,9.76
2019-03-05T02:17:54.475Z,9.75
2019-03-05T02:20:26.568Z,9.75
2019-03-05T02:23:12.527Z,9.73
2019-03-05T02:26:41.659Z,9.73
2019-03-05T02:29:46.571Z,9.71
2019-03-05T02:33:25.110Z,9.76
2019-03-05T02:36:39.611Z,9.75
2019-03-05T02:39:55.526Z,9.77
2019-03-05T02:43:27.949Z,9.78
2019-03-05T02:46:55.196Z,9.86
2019-03-05T02:50:12.484Z,9.94
2019-03-05T02:53:09.220Z,9.94
2019-03-05T02:56:42.989Z,9.97
2019-03-05T02:59:10.944Z,9.95
2019-03-05T03:02:00.271Z,9.96
2019-03-05T03:04:34.370Z,9.96
2019-03-05T03:07:04.769Z,9.96
2019-03-05T03:10:14.455Z,10.03
2019-03-05T03:12:45.443Z,10.07
2019-03-05T03:15:17.617Z,10.10
2019-03-05T03:17:49.575Z,10.08
2019-03-05T03:20:22.021Z,10.03
2019-03-05T03:22:54.499Z,10.01
2019-03-05T03:25:25.525Z,10.00
2019-03-05T03:27:56.297Z,10.01
2019-03-05T03:30:29.028Z,10.03
2019-03-05T03:32:59.500Z,10.04
2019-03-05T03:35:29.941Z,10.05
2019-03-05T03:38:00.372Z,10.03
2019-03-05T03:40:30.807Z,10.04
2019-03-05T03:43:01.244Z,10.00
2019-03-05T03:45:33.713Z,10.01
2019-03-05T03:48:04.142Z,10.01
2019-03-05T03:50:34.730Z,10.00
2019-03-05T03:53:05.269Z,9.98
2019-03-05T03:55:35.939Z,9.94
2019-03-05T03:58:06.417Z,9.92
2019-03-05T04:00:38.043Z,9.90
2019-03-05T04:03:08.571Z,9.89
2019-03-05T04:05:39.064Z,9.91
2019-03-05T04:08:10.638Z,9.96
2019-03-05T04:10:41.288Z,10.00
2019-03-05T04:13:11.714Z,9.99
2019-03-05T04:15:42.439Z,9.99
2019-03-05T04:18:13.267Z,9.97
2019-03-05T04:20:52.429Z,9.92
2019-03-05T04:23:23.552Z,9.89
2019-03-05T04:25:54.355Z,9.93
2019-03-05T04:28:25.163Z,9.97
2019-03-05T04:30:55.654Z,9.94
2019-03-05T04:33:26.067Z,9.94
2019-03-05T04:35:56.442Z,9.96
2019-03-05T04:38:26.923Z,9.96
2019-03-05T04:40:57.325Z,10.00
2019-03-05T04:43:27.806Z,10.01
2019-03-05T04:46:16.130Z,10.04
2019-03-05T04:49:06.433Z,9.99
2019-03-05T04:51:43.988Z,9.95
2019-03-05T04:54:14.744Z,9.99
2019-03-05T04:56:45.487Z,10.01
2019-03-05T04:59:16.315Z,10.00
2019-03-05T05:01:46.700Z,9.96
2019-03-05T05:04:17.513Z,9.93
2019-03-05T05:06:48.338Z,9.99
2019-03-05T05:09:18.685Z,10.01
2019-03-05T05:11:49.534Z,10.05
2019-03-05T05:14:19.907Z,10.06
2019-03-05T05:16:50.334Z,10.07
2019-03-05T05:19:21.574Z,10.06
2019-03-05T05:21:52.419Z,10.03
2019-03-05T05:24:22.814Z,10.01
2019-03-05T05:26:53.247Z,9.99
2019-03-05T05:29:24.225Z,9.96
2019-03-05T05:31:55.089Z,9.94
2019-03-05T05:34:25.772Z,9.96
2019-03-05T05:36:56.694Z,9.95
2019-03-05T05:40:22.435Z,9.94
2019-03-05T05:42:53.655Z,9.83
2019-03-05T05:45:26.709Z,9.87
2019-03-05T05:47:57.532Z,9.86
2019-03-05T05:50:27.873Z,9.88
2019-03-05T05:52:58.349Z,9.88
2019-03-05T05:55:28.778Z,9.94
2019-03-05T05:57:59.206Z,9.99
2019-03-05T06:00:29.735Z,10.01
2019-03-05T06:03:00.715Z,9.95
2019-03-05T06:05:31.436Z,9.95
2019-03-05T06:08:03.297Z,9.95
2019-03-05T06:10:33.697Z,9.89
2019-03-05T06:13:04.574Z,9.87
2019-03-05T06:15:35.035Z,9.93
2019-03-05T06:18:09.114Z,9.94
2019-03-05T06:20:42.577Z,9.90
2019-03-05T06:23:12.270Z,9.91
2019-03-05T06:25:43.040Z,9.84
2019-03-05T06:28:15.922Z,9.87
2019-03-05T06:30:46.408Z,9.92
2019-03-05T06:33:16.746Z,9.94
2019-03-05T06:35:47.258Z,10.00
2019-03-05T06:38:17.991Z,10.06
2019-03-05T06:40:48.484Z,10.08
2019-03-05T06:43:19.528Z,10.04
2019-03-05T06:45:49.911Z,10.11
2019-03-05T06:48:22.385Z,10.15
2019-03-05T06:50:52.943Z,10.18
2019-03-05T06:53:26.438Z,10.16
2019-03-05T06:55:56.785Z,10.04
2019-03-05T06:58:27.238Z,9.98
2019-03-05T07:00:57.708Z,10.01
2019-03-05T07:03:28.596Z,10.07
2019-03-05T07:06:47.944Z,10.08
2019-03-05T07:09:53.610Z,10.11
2019-03-05T07:12:59.249Z,10.06
2019-03-05T07:16:31.701Z,10.03
2019-03-05T07:19:19.742Z,9.99
2019-03-05T07:22:41.176Z,9.86
2019-03-05T07:25:18.734Z,9.80
2019-03-05T07:27:58.159Z,9.83
2019-03-05T07:30:29.382Z,9.91
2019-03-05T07:33:03.221Z,9.96
2019-03-05T07:35:34.991Z,10.03
2019-03-05T07:38:09.386Z,10.14
2019-03-05T07:40:39.940Z,10.36
2019-03-05T07:43:10.508Z,10.49
2019-03-05T07:45:41.294Z,10.47
2019-03-05T07:48:11.647Z,10.34
2019-03-05T07:50:42.525Z,10.37
2019-03-05T07:53:13.035Z,10.54
2019-03-05T07:55:49.635Z,10.77
2019-03-05T07:58:26.973Z,10.89
2019-03-05T08:00:58.731Z,11.08
2019-03-05T08:03:34.086Z,11.00
2019-03-05T08:06:04.984Z,10.90
2019-03-05T08:09:31.959Z,10.92
2019-03-05T08:12:34.702Z,10.86
2019-03-05T08:16:01.681Z,10.97
2019-03-05T08:18:26.674Z,10.96
2019-03-05T08:21:08.878Z,10.99
2019-03-05T08:23:39.967Z,11.05
2019-03-05T08:26:17.942Z,10.99
2019-03-05T08:28:50.574Z,10.88
2019-03-05T08:31:32.582Z,10.91
2019-03-05T08:34:14.401Z,10.99
2019-03-05T08:36:58.586Z,10.92
2019-03-05T08:39:29.865Z,11.00
2019-03-05T08:42:10.796Z,11.03
2019-03-05T08:44:52.249Z,11.06
2019-03-05T08:47:26.668Z,11.04
2019-03-05T08:49:57.259Z,11.02
2019-03-05T08:52:28.927Z,10.96
2019-03-05T08:55:14.769Z,10.90
2019-03-05T08:58:04.974Z,10.86
2019-03-05T09:00:35.852Z,10.85
2019-03-05T09:03:33.091Z,10.88
2019-03-05T09:06:11.077Z,10.95
2019-03-05T09:08:42.157Z,10.94
2019-03-05T09:11:19.078Z,10.99
2019-03-05T09:13:54.137Z,11.11
2019-03-05T09:16:32.644Z,11.35
2019-03-05T09:19:01.693Z,11.48
2019-03-05T09:21:32.299Z,11.44
2019-03-05T09:24:05.976Z,11.45
2019-03-05T09:27:02.113Z,11.48
2019-03-05T09:29:42.183Z,11.39
2019-03-05T09:32:19.769Z,11.50
2019-03-05T09:34:57.039Z,11.73
2019-03-05T09:37:43.734Z,11.88
2019-03-05T09:40:18.067Z,11.81
2019-03-05T09:42:49.962Z,11.78
2019-03-05T09:45:24.652Z,11.80
2019-03-05T09:48:05.257Z,12.00
2019-03-05T09:51:36.882Z,12.09
2019-03-05T09:54:07.578Z,12.05
2019-03-05T09:56:40.989Z,12.27
2019-03-05T09:59:11.414Z,12.16
2019-03-05T10:01:44.399Z,12.07
2019-03-05T10:04:17.000Z,11.91
2019-03-05T10:07:28.292Z,11.80
2019-03-05T10:10:13.333Z,11.76
2019-03-05T10:12:44.173Z,11.94
2019-03-05T10:16:00.515Z,12.21
2019-03-05T10:18:33.219Z,12.30
2019-03-05T10:21:11.817Z,12.28
2019-03-05T10:23:44.037Z,12.28
2019-03-05T10:26:18.659Z,12.24
2019-03-05T10:28:53.938Z,12.19
2019-03-05T10:31:29.764Z,12.30
2019-03-05T10:34:03.196Z,12.34
2019-03-05T10:37:18.887Z,12.27
2019-03-05T10:40:00.496Z,12.34
2019-03-05T10:43:22.095Z,12.40
2019-03-05T10:46:14.757Z,12.34
2019-03-05T10:49:06.250Z,12.32
2019-03-05T10:52:05.593Z,12.22
2019-03-05T10:55:11.006Z,12.16
2019-03-05T10:58:33.995Z,12.04
2019-03-05T11:01:02.548Z,11.88
2019-03-05T11:03:33.484Z,11.82
2019-03-05T11:06:06.600Z,11.78
2019-03-05T11:08:38.750Z,11.76
2019-03-05T11:11:13.823Z,11.77
2019-03-05T11:13:44.795Z,11.79
2019-03-05T11:16:30.764Z,11.88
2019-03-05T11:18:53.855Z,11.88
2019-03-05T11:21:40.454Z,11.79
2019-03-05T11:24:24.086Z,11.78
2019-03-05T11:26:54.722Z,11.90
2019-03-05T11:29:37.534Z,12.01
2019-03-05T11:32:08.501Z,11.98
2019-03-05T11:34:44.838Z,12.05
2019-03-05T11:37:15.472Z,12.17
2019-03-05T11:40:03.577Z,12.06
2019-03-05T11:42:42.997Z,11.76
2019-03-05T11:45:20.980Z,11.56
2019-03-05T11:47:52.882Z,11.50
2019-03-05T11:50:23.880Z,11.46
2019-03-05T11:52:58.106Z,11.46
2019-03-05T11:55:29.779Z,11.54
2019-03-05T11:58:00.533Z,11.51
2019-03-05T12:00:53.159Z,11.46
2019-03-05T12:03:32.462Z,11.36
2019-03-05T12:06:04.136Z,11.36
2019-03-05T12:08:34.829Z,11.32
2019-03-05T12:11:05.992Z,11.40
2019-03-05T12:13:41.385Z,11.34
2019-03-05T12:16:17.908Z,11.27
2019-03-05T12:18:56.551Z,11.28
2019-03-05T12:21:35.892Z,11.31
2019-03-05T12:24:11.737Z,11.33
2019-03-05T12:27:02.824Z,11.19
2019-03-05T12:29:46.155Z,11.14
2019-03-05T12:32:21.267Z,11.28
2019-03-05T12:34:54.191Z,11.31
2019-03-05T12:37:35.831Z,11.32
2019-03-05T12:40:20.313Z,11.40
2019-03-05T12:42:53.742Z,11.32
2019-03-05T12:45:26.323Z,11.45
2019-03-05T12:48:06.529Z,11.60
2019-03-05T12:50:42.044Z,11.54
2019-03-05T12:53:18.665Z,11.58
2019-03-05T12:55:58.850Z,11.66
2019-03-05T12:58:39.153Z,11.73
2019-03-05T13:01:20.850Z,11.87
2019-03-05T13:04:18.972Z,12.14
2019-03-05T13:06:53.245Z,12.16
2019-03-05T13:09:29.720Z,12.15
2019-03-05T13:12:14.445Z,12.16
2019-03-05T13:15:03.173Z,12.24
2019-03-05T13:24:13.606Z,12.36
2019-03-05T13:26:51.753Z,12.35
2019-03-05T13:29:53.540Z,12.23
2019-03-05T13:32:54.114Z,11.99
2019-03-05T13:35:54.301Z,12.03
2019-03-05T13:38:25.280Z,12.05
2019-03-05T13:41:04.567Z,12.07
2019-03-05T13:43:36.567Z,12.30
2019-03-05T13:46:08.138Z,12.59
2019-03-05T13:53:39.225Z,13.14
2019-03-05T13:57:04.047Z,12.96
2019-03-05T13:59:52.028Z,12.77
2019-03-05T14:02:39.154Z,12.74
2019-03-05T14:06:02.866Z,12.72
2019-03-05T14:09:23.726Z,12.70
2019-03-05T14:12:11.506Z,12.76
2019-03-05T14:15:04.697Z,12.96
2019-03-05T14:18:01.119Z,13.05
2019-03-05T14:20:57.701Z,13.23
2019-03-05T14:23:41.181Z,13.40
2019-03-05T14:26:14.841Z,13.16
2019-03-05T14:28:51.019Z,13.11
2019-03-05T14:31:21.885Z,12.98
2019-03-05T14:33:52.733Z,12.81
2019-03-05T14:36:24.876Z,12.78
2019-03-05T14:38:56.879Z,12.70
2019-03-05T14:41:30.813Z,12.53
2019-03-05T14:44:09.098Z,12.45
2019-03-05T14:46:54.822Z,12.45
2019-03-05T14:49:36.428Z,12.51
2019-03-05T14:52:12.269Z,12.38
2019-03-05T14:54:49.312Z,12.23
2019-03-05T14:57:31.121Z,11.85
2019-03-05T15:00:02.095Z,11.60
2019-03-05T15:02:36.504Z,11.45
2019-03-05T15:05:23.610Z,11.36
2019-03-05T15:08:11.767Z,11.36
2019-03-05T15:10:57.876Z,11.35
2019-03-05T15:13:30.471Z,11.30
2019-03-05T15:16:03.675Z,11.36
2019-03-05T15:18:34.305Z,11.44
2019-03-05T15:21:08.711Z,11.45
2019-03-05T15:24:07.908Z,11.43
2019-03-05T15:27:08.963Z,11.49
2019-03-05T15:29:42.721Z,11.50
2019-03-05T15:32:23.349Z,11.44
2019-03-05T15:35:02.244Z,11.35
2019-03-05T15:37:39.712Z,11.32
2019-03-05T15:40:16.848Z,11.22
2019-03-05T15:42:49.843Z,11.22
2019-03-05T15:45:24.329Z,11.20
2019-03-05T15:48:04.602Z,11.24
2019-03-05T15:50:35.221Z,11.29
2019-03-05T15:53:10.146Z,11.24
2019-03-05T15:55:40.733Z,11.15
2019-03-05T15:58:11.592Z,11.03
2019-03-05T16:00:45.012Z,10.93
2019-03-05T16:03:18.286Z,10.87
2019-03-05T16:05:48.827Z,10.85
2019-03-05T16:08:25.199Z,10.78
2019-03-05T16:10:54.714Z,10.72
2019-03-05T16:13:28.570Z,10.69
2019-03-05T16:16:14.084Z,10.67
2019-03-05T16:18:43.899Z,10.62
2019-03-05T16:21:15.847Z,10.59
2019-03-05T16:23:46.426Z,10.57
2019-03-05T16:26:17.057Z,10.54
2019-03-05T16:28:49.678Z,10.50
2019-03-05T16:31:30.453Z,10.46
2019-03-05T16:35:06.117Z,10.47
2019-03-05T16:37:52.920Z,10.43
2019-03-05T16:40:30.182Z,10.44
2019-03-05T16:43:32.554Z,10.42
2019-03-05T16:46:21.186Z,10.41
2019-03-05T16:48:59.398Z,10.38
2019-03-05T16:51:46.676Z,10.38
2019-03-05T16:54:39.442Z,10.36
2019-03-05T16:57:34.925Z,10.31
2019-03-05T17:00:31.487Z,10.30
2019-03-05T17:03:20.503Z,10.24
2019-03-05T17:06:19.657Z,10.23
2019-03-05T17:09:12.174Z,10.17
2019-03-05T17:11:58.381Z,10.11
2019-03-05T17:14:43.116Z,10.09
2019-03-05T17:17:17.159Z,10.09
2019-03-05T17:19:47.866Z,10.09
2019-03-05T17:22:18.360Z,10.08
2019-03-05T17:24:49.194Z,10.03
2019-03-05T17:27:19.819Z,9.98
2019-03-05T17:29:53.465Z,9.96
2019-03-05T17:32:24.404Z,9.94
2019-03-05T17:34:56.474Z,9.93
2019-03-05T17:37:28.333Z,9.91
2019-03-05T17:39:59.306Z,9.90
2019-03-05T17:42:29.819Z,9.86
2019-03-05T17:45:01.297Z,9.84
2019-03-05T17:47:32.323Z,9.81
2019-03-05T17:50:02.928Z,9.82
2019-03-05T17:52:33.395Z,9.79
2019-03-05T17:55:06.487Z,9.80
2019-03-05T17:57:36.969Z,9.79
2019-03-05T18:00:12.649Z,9.74
2019-03-05T18:02:43.304Z,9.71
2019-03-05T18:05:14.159Z,9.69
2019-03-05T18:07:50.757Z,9.69
2019-03-05T18:10:21.589Z,9.69
2019-03-05T18:12:54.078Z,9.63
2019-03-05T18:15:26.279Z,9.62
2019-03-05T18:18:00.100Z,9.61
2019-03-05T18:20:31.023Z,9.60
2019-03-05T18:23:07.401Z,9.61
2019-03-05T18:25:58.514Z,9.61
2019-03-05T18:28:34.738Z,9.60
2019-03-05T18:31:13.084Z,9.60
2019-03-05T18:33:43.879Z,9.58
2019-03-05T18:36:43.282Z,9.59
2019-03-05T18:39:15.069Z,9.58
2019-03-05T18:41:45.810Z,9.59
2019-03-05T18:44:16.683Z,9.61
2019-03-05T18:46:47.438Z,9.60
2019-03-05T18:49:19.325Z,9.58
2019-03-05T18:51:55.453Z,9.55
2019-03-05T18:54:26.229Z,9.54
2019-03-05T18:56:57.056Z,9.53
2019-03-05T18:59:29.398Z,9.51
2019-03-05T19:02:03.022Z,9.48
2019-03-05T19:04:33.834Z,9.47
2019-03-05T19:07:04.627Z,9.48
2019-03-05T19:09:35.082Z,9.47
2019-03-05T19:12:08.248Z,9.46
2019-03-05T19:14:40.880Z,9.44
2019-03-05T19:17:11.803Z,9.47
2019-03-05T19:19:42.441Z,9.47
2019-03-05T19:22:12.989Z,9.46
2019-03-05T19:24:46.828Z,9.47
2019-03-05T19:27:26.120Z,9.45
2019-03-05T19:29:53.483Z,9.42
2019-03-05T19:32:23.915Z,9.43
2019-03-05T19:34:55.130Z,9.43
2019-03-05T19:37:31.372Z,9.42
2019-03-05T19:40:02.480Z,9.37
2019-03-05T19:42:33.049Z,9.34
2019-03-05T19:45:04.408Z,9.23
2019-03-05T19:47:35.650Z,9.16
2019-03-05T19:50:09.349Z,9.12
2019-03-05T19:52:43.182Z,9.10
2019-03-05T19:55:16.039Z,9.03
2019-03-05T19:57:46.777Z,8.96
2019-03-05T20:00:32.474Z,8.93
2019-03-05T20:03:02.982Z,8.88
2019-03-05T20:05:35.150Z,8.85
2019-03-05T20:08:05.598Z,8.80
2019-03-05T20:10:42.167Z,8.73
2019-03-05T20:13:17.811Z,8.72
2019-03-05T20:15:49.899Z,8.68
2019-03-05T20:18:22.988Z,8.62
2019-03-05T20:21:15.824Z,8.59
2019-03-05T20:23:46.362Z,8.53
2019-03-05T20:26:19.557Z,8.53
2019-03-05T20:28:52.210Z,8.54
2019-03-05T20:31:23.353Z,8.50
2019-03-05T20:34:15.683Z,8.49
2019-03-05T20:36:51.866Z,8.45
2019-03-05T20:39:24.679Z,8.45
2019-03-05T20:42:01.554Z,8.43
2019-03-05T20:44:32.362Z,8.39
2019-03-05T20:47:04.686Z,8.36
2019-03-05T20:49:35.387Z,8.33
2019-03-05T20:52:06.098Z,8.32
2019-03-05T20:54:36.939Z,8.31
2019-03-05T20:57:07.465Z,8.30
2019-03-05T20:59:38.081Z,8.26
2019-03-05T21:02:08.548Z,8.21
2019-03-05T21:04:41.384Z,8.18
2019-03-05T21:07:14.897Z,8.16
2019-03-05T21:09:45.616Z,8.17
2019-03-05T21:12:17.520Z,8.13
2019-03-05T21:14:47.932Z,8.12
2019-03-05T21:17:21.658Z,8.11
2019-03-05T21:19:52.022Z,8.11
2019-03-05T21:22:22.803Z,8.09
2019-03-05T21:24:53.191Z,8.09
2019-03-05T21:27:23.708Z,8.09
2019-03-05T21:29:58.140Z,8.10
2019-03-05T21:32:30.240Z,8.07
2019-03-05T21:35:03.558Z,8.03
2019-03-05T21:37:34.784Z,7.96
2019-03-05T21:40:06.084Z,7.94
2019-03-05T21:42:36.620Z,7.93
2019-03-05T21:45:12.570Z,7.95
2019-03-05T21:47:44.630Z,7.94
2019-03-05T21:50:23.181Z,7.93
2019-03-05T21:52:56.698Z,7.90
2019-03-05T21:55:29.668Z,7.86
2019-03-05T21:58:00.089Z,7.79
2019-03-05T22:00:31.731Z,7.73
2019-03-05T22:03:02.402Z,7.70
2019-03-05T22:05:36.994Z,7.65
2019-03-05T22:08:10.260Z,7.64
2019-03-05T22:11:13.362Z,7.66
2019-03-05T22:13:43.801Z,7.65
2019-03-05T22:16:15.986Z,7.68
2019-03-05T22:18:46.401Z,7.66
2019-03-05T22:21:17.039Z,7.62
2019-03-05T22:23:47.597Z,7.62
2019-03-05T22:26:18.709Z,7.63
2019-03-05T22:29:07.056Z,7.61
2019-03-05T22:31:38.443Z,7.57
2019-03-05T22:34:16.902Z,7.53
2019-03-05T22:36:48.155Z,7.50
2019-03-05T22:39:20.130Z,7.48
2019-03-05T22:41:52.388Z,7.43
2019-03-05T22:44:24.140Z,7.41
2019-03-05T22:46:54.767Z,7.40
2019-03-05T22:49:25.507Z,7.38
2019-03-05T22:51:56.021Z,7.36
2019-03-05T22:54:26.549Z,7.36
2019-03-05T22:56:56.951Z,7.35
2019-03-05T22:59:30.577Z,7.35
2019-03-05T23:02:01.425Z,7.30
2019-03-05T23:04:39.935Z,7.28
2019-03-05T23:07:10.759Z,7.28
2019-03-05T23:09:41.271Z,7.28
2019-03-05T23:12:12.710Z,7.27
2019-03-05T23:14:43.270Z,7.30
2019-03-05T23:17:16.141Z,7.32
2019-03-05T23:19:46.583Z,7.35
2019-03-05T23:22:17.531Z,7.40
2019-03-05T23:24:47.947Z,7.43
2019-03-05T23:27:22.079Z,7.42
2019-03-05T23:29:52.535Z,7.37
2019-03-05T23:32:23.113Z,7.34
2019-03-05T23:34:54.792Z,7.26
2019-03-05T23:37:25.855Z,7.23
2019-03-05T23:39:56.238Z,7.23
2019-03-05T23:42:27.032Z,7.22
2019-03-05T23:44:57.919Z,7.23
2019-03-05T23:47:28.467Z,7.28
2019-03-05T23:50:02.332Z,7.27
2019-03-05T23:52:32.874Z,7.28
2019-03-05T23:55:03.453Z,7.27
2019-03-05T23:57:34.161Z,7.28
